Time;durP1;ratioP1;P1;durP2;ratioP2;P2;SDS_P1;SDS_P2;PMS_P1;PMS_P2;Temp;Humidity;BMP_temperature;BMP_pressure;BME280_temperature;BME280_humidity;BME280_pressure;Samples;Min_cycle;Max_cycle;Signal;HPM_P1;HPM_P2
2021/05/29 00:00:08;;;;;;;7.50;5.35;;;;;;;8.75;77.10;102103.50;5064295;28;20341;-81
2021/05/29 00:02:33;;;;;;;6.78;5.78;;;;;;;8.69;78.06;102103.41;5064540;28;20028;-81
2021/05/29 00:04:59;;;;;;;8.52;5.78;;;;;;;8.65;78.17;102101.63;5064657;28;20042;-80
2021/05/29 00:07:24;;;;;;;8.10;5.65;;;;;;;8.69;77.57;102098.19;5064863;28;20028;-81
2021/05/29 00:09:49;;;;;;;6.80;6.10;;;;;;;8.79;77.51;102099.19;5064037;28;20024;-81
2021/05/29 00:12:15;;;;;;;10.13;6.05;;;;;;;8.71;77.79;102111.25;5064181;28;20024;-81
2021/05/29 00:14:41;;;;;;;9.15;5.78;;;;;;;8.73;77.70;102105.19;5081298;28;20027;-81
2021/05/29 00:17:07;;;;;;;9.07;5.93;;;;;;;8.73;77.65;102109.53;5081095;28;20078;-82
2021/05/29 00:19:33;;;;;;;9.05;5.88;;;;;;;8.68;77.22;102101.66;5063831;28;20027;-82
2021/05/29 00:21:58;;;;;;;8.50;7.30;;;;;;;8.57;77.89;102105.84;5064457;28;20333;-81
2021/05/29 00:24:23;;;;;;;6.65;5.93;;;;;;;8.68;77.64;102093.84;5080997;28;20024;-81
2021/05/29 00:26:49;;;;;;;7.93;6.25;;;;;;;8.62;78.09;102097.22;5064767;28;20414;-81
2021/05/29 00:29:14;;;;;;;7.22;6.35;;;;;;;8.65;78.06;102098.16;5063670;28;20028;-82
2021/05/29 00:31:39;;;;;;;6.40;5.80;;;;;;;8.67;78.13;102099.03;5063543;28;20435;-81
2021/05/29 00:34:05;;;;;;;10.20;7.07;;;;;;;8.56;77.99;102101.47;5065457;28;20024;-81
2021/05/29 00:36:30;;;;;;;8.25;6.25;;;;;;;8.60;78.64;102098.94;5081607;28;20425;-82
2021/05/29 00:38:56;;;;;;;11.05;7.18;;;;;;;8.65;79.17;102105.97;5063663;28;20028;-82
2021/05/29 00:41:21;;;;;;;8.32;6.22;;;;;;;8.65;78.60;102111.16;5063246;28;20028;-80
2021/05/29 00:43:47;;;;;;;9.88;6.43;;;;;;;8.66;78.90;102113.78;5063376;28;20028;-80
2021/05/29 00:46:12;;;;;;;9.35;7.25;;;;;;;8.56;78.16;102111.88;5063307;28;20026;-81
2021/05/29 00:48:38;;;;;;;8.02;6.40;;;;;;;8.56;78.96;102107.56;5062595;28;20028;-81
2021/05/29 00:51:05;;;;;;;9.20;6.22;;;;;;;8.57;78.89;102106.69;5079498;28;20028;-81
2021/05/29 00:53:31;;;;;;;13.68;8.27;;;;;;;8.51;79.39;102110.94;5062642;28;20032;-81
2021/05/29 00:56:01;;;;;;;8.50;6.57;;;;;;;8.59;78.65;102117.16;5063407;28;20110;-82
2021/05/29 00:58:27;;;;;;;8.52;6.35;;;;;;;8.72;78.35;102115.59;5079112;28;20028;-81
2021/05/29 01:00:54;;;;;;;9.00;6.00;;;;;;;8.65;78.86;102121.59;5063909;28;20051;-81
2021/05/29 01:03:19;;;;;;;10.07;6.88;;;;;;;8.68;79.05;102116.41;5063075;28;20036;-81
2021/05/29 01:05:47;;;;;;;9.02;6.65;;;;;;;8.60;79.20;102119.78;5064922;28;20456;-82
2021/05/29 01:08:13;;;;;;;9.75;6.97;;;;;;;8.48;79.62;102129.13;5081000;28;20027;-81
2021/05/29 01:10:39;;;;;;;11.20;6.38;;;;;;;8.57;78.95;102124.06;5063590;28;20032;-82
2021/05/29 01:13:06;;;;;;;7.68;6.47;;;;;;;8.45;79.34;102119.53;5063066;28;20101;-81
2021/05/29 01:15:38;;;;;;;6.50;5.55;;;;;;;8.58;79.24;102120.63;5063037;28;20083;-82
2021/05/29 01:18:04;;;;;;;9.82;7.20;;;;;;;8.47;79.40;102117.84;5081012;28;20302;-82
2021/05/29 01:20:30;;;;;;;8.73;7.00;;;;;;;8.53;79.31;102123.13;5061867;28;20028;-82
2021/05/29 01:22:56;;;;;;;7.85;5.50;;;;;;;8.57;79.67;102118.84;5079408;28;20030;-81
2021/05/29 01:25:48;;;;;;;9.32;5.88;;;;;;;8.51;80.34;102122.25;5062919;28;20024;-82
2021/05/29 01:28:22;;;;;;;7.28;6.55;;;;;;;8.68;79.45;102116.41;5075247;28;20348;-82
2021/05/29 01:31:02;;;;;;;13.82;7.45;;;;;;;8.55;79.13;102126.66;5062210;28;20024;-82
2021/05/29 01:33:32;;;;;;;9.02;7.03;;;;;;;8.46;79.88;102122.16;5079144;28;20031;-82
2021/05/29 01:36:10;;;;;;;16.23;7.20;;;;;;;8.49;81.53;102121.34;5078022;28;20020;-82
2021/05/29 01:38:37;;;;;;;9.45;7.07;;;;;;;8.49;79.97;102126.53;5061426;28;20107;-82
2021/05/29 01:41:05;;;;;;;9.55;6.80;;;;;;;8.44;79.54;102123.00;5061422;28;20035;-82
2021/05/29 01:43:31;;;;;;;9.40;7.28;;;;;;;8.45;79.79;102129.97;5061764;28;20024;-82
2021/05/29 01:45:56;;;;;;;8.80;8.00;;;;;;;8.35;80.36;102143.66;5060496;28;20035;-81
2021/05/29 01:48:22;;;;;;;8.93;7.25;;;;;;;8.41;80.31;102138.53;5061035;28;20024;-81
2021/05/29 01:50:48;;;;;;;10.07;7.30;;;;;;;8.58;79.78;102131.91;5061346;28;20023;-81
2021/05/29 01:53:17;;;;;;;8.13;7.30;;;;;;;8.58;79.41;102131.91;5061818;28;20058;-81
2021/05/29 01:55:43;;;;;;;11.43;7.35;;;;;;;8.65;79.21;102137.22;5078170;28;20074;-81
2021/05/29 01:58:09;;;;;;;10.45;7.85;;;;;;;8.55;80.62;102139.69;5078283;28;20066;-81
2021/05/29 02:00:34;;;;;;;12.13;8.68;;;;;;;8.48;80.98;102139.56;5061261;28;20119;-81
2021/05/29 02:03:00;;;;;;;10.65;7.95;;;;;;;8.43;80.19;102142.06;5076783;28;20024;-81
2021/05/29 02:05:27;;;;;;;9.38;7.60;;;;;;;8.57;79.03;102142.31;5061186;28;20035;-82
2021/05/29 02:07:53;;;;;;;10.48;7.72;;;;;;;8.58;78.51;102139.72;5078406;28;20020;-82
2021/05/29 02:10:24;;;;;;;12.20;7.82;;;;;;;8.41;79.37;102143.75;5061755;28;20378;-82
2021/05/29 02:12:52;;;;;;;11.68;7.93;;;;;;;8.34;79.47;102139.31;5061877;28;20039;-82
2021/05/29 02:15:23;;;;;;;7.50;6.72;;;;;;;8.37;79.64;102141.94;5062510;28;20046;-82
2021/05/29 02:17:50;;;;;;;9.88;6.82;;;;;;;8.39;78.30;102141.13;5078471;28;20028;-82
2021/05/29 02:20:17;;;;;;;9.27;7.15;;;;;;;8.31;78.83;102141.88;5078874;28;20024;-82
2021/05/29 02:22:43;;;;;;;8.10;7.35;;;;;;;8.13;79.57;102143.31;5062100;28;20070;-81
2021/05/29 02:25:09;;;;;;;8.52;7.53;;;;;;;8.20;80.07;102145.16;5062474;28;20036;-81
2021/05/29 02:27:34;;;;;;;7.63;6.55;;;;;;;8.24;80.68;102141.75;5062100;28;20016;-80
2021/05/29 02:30:00;;;;;;;8.32;7.22;;;;;;;8.39;80.19;102145.47;5062512;28;20111;-80
2021/05/29 02:32:26;;;;;;;9.38;8.40;;;;;;;8.29;79.05;102147.06;5079263;28;20020;-80
2021/05/29 02:34:51;;;;;;;8.43;7.65;;;;;;;8.38;78.75;102139.38;5062698;28;20451;-81
2021/05/29 02:37:17;;;;;;;11.38;8.35;;;;;;;8.25;80.58;102146.13;5062258;28;20028;-81
2021/05/29 02:39:42;;;;;;;12.90;7.93;;;;;;;8.31;79.50;102147.06;5061886;28;20385;-80
2021/05/29 02:42:07;;;;;;;13.07;9.70;;;;;;;8.28;81.09;102148.75;5062433;28;20020;-80
2021/05/29 02:44:33;;;;;;;12.65;8.50;;;;;;;8.28;80.28;102145.28;5078267;28;20035;-79
2021/05/29 02:46:58;;;;;;;9.88;8.25;;;;;;;8.28;79.45;102153.09;5061675;28;20020;-79
2021/05/29 02:49:24;;;;;;;14.40;8.90;;;;;;;8.20;79.35;102149.50;5061021;28;20111;-79
2021/05/29 02:51:49;;;;;;;11.23;9.30;;;;;;;8.10;80.46;102151.06;5061861;28;20020;-79
2021/05/29 02:54:14;;;;;;;10.90;8.85;;;;;;;8.19;79.47;102159.00;5061762;28;20020;-79
2021/05/29 02:56:40;;;;;;;11.85;9.18;;;;;;;8.08;79.83;102152.75;5079155;28;20043;-81
2021/05/29 02:59:05;;;;;;;11.25;9.05;;;;;;;8.08;80.40;102156.22;5060294;28;20179;-80
2021/05/29 03:01:30;;;;;;;11.20;8.10;;;;;;;8.12;80.59;102150.22;5077670;28;20060;-82
2021/05/29 03:03:56;;;;;;;10.65;8.35;;;;;;;8.15;81.08;102152.00;5060995;28;20111;-81
2021/05/29 03:06:21;;;;;;;11.90;9.48;;;;;;;8.19;79.87;102152.94;5061194;28;20126;-81
2021/05/29 03:08:46;;;;;;;14.00;9.77;;;;;;;8.10;80.28;102143.25;5060367;28;20012;-81
2021/05/29 03:11:12;;;;;;;14.95;10.07;;;;;;;8.11;80.92;102139.78;5060931;28;20083;-82
2021/05/29 03:13:37;;;;;;;9.07;8.13;;;;;;;8.26;79.76;102150.47;5061497;28;20032;-81
2021/05/29 03:16:03;;;;;;;8.82;7.93;;;;;;;8.32;80.52;102146.19;5064011;28;20425;-82
2021/05/29 03:18:29;;;;;;;8.88;7.90;;;;;;;8.18;80.98;102135.56;5064263;28;20078;-81
2021/05/29 03:20:55;;;;;;;8.32;7.47;;;;;;;8.18;80.83;102146.88;5081242;28;20324;-81
2021/05/29 03:23:21;;;;;;;6.47;5.45;;;;;;;8.25;81.10;102148.72;5081414;28;20024;-81
2021/05/29 03:25:46;;;;;;;6.07;5.32;;;;;;;8.25;81.57;102148.72;5080936;28;20043;-81
2021/05/29 03:28:11;;;;;;;8.40;6.13;;;;;;;8.21;80.51;102159.06;5064316;28;20075;-80
2021/05/29 03:30:39;;;;;;;7.43;5.80;;;;;;;8.23;81.07;102159.94;5080920;28;20443;-80
2021/05/29 03:33:05;;;;;;;6.05;5.45;;;;;;;8.27;81.14;102156.53;5064508;28;20020;-81
2021/05/29 03:35:30;;;;;;;9.43;5.75;;;;;;;8.12;81.28;102160.63;5064112;28;20028;-81
2021/05/29 03:37:56;;;;;;;6.00;5.05;;;;;;;8.29;80.97;102168.75;5063788;28;20023;-81
2021/05/29 03:40:21;;;;;;;10.55;5.53;;;;;;;8.08;82.16;102161.44;5080651;28;20048;-81
2021/05/29 03:42:47;;;;;;;8.75;6.10;;;;;;;8.25;81.97;102161.72;5064375;28;20020;-80
2021/05/29 03:45:14;;;;;;;7.75;6.18;;;;;;;8.18;82.19;102162.50;5063710;28;20048;-81
2021/05/29 03:47:40;;;;;;;9.85;7.20;;;;;;;8.07;82.68;102153.59;5064001;28;20016;-81
2021/05/29 03:50:06;;;;;;;15.88;9.82;;;;;;;8.08;81.92;102163.16;5081120;28;20421;-80
2021/05/29 03:52:31;;;;;;;15.10;10.05;;;;;;;8.05;82.17;102156.19;5080796;28;20024;-81
2021/05/29 03:54:57;;;;;;;12.15;8.45;;;;;;;8.12;81.56;102167.56;5063901;28;20464;-81
2021/05/29 03:57:22;;;;;;;10.25;8.45;;;;;;;8.21;81.12;102162.53;5063536;28;20448;-81
2021/05/29 03:59:48;;;;;;;15.48;9.85;;;;;;;8.11;82.58;102164.09;5063811;28;20032;-80
2021/05/29 04:02:13;;;;;;;12.00;9.07;;;;;;;8.28;80.74;102164.38;5063823;28;20016;-80
2021/05/29 04:04:39;;;;;;;10.93;9.50;;;;;;;8.24;81.31;102162.56;5081387;28;20032;-80
2021/05/29 04:07:04;;;;;;;12.63;9.50;;;;;;;8.29;81.83;102166.13;5080986;28;20028;-80
2021/05/29 04:09:29;;;;;;;12.95;9.52;;;;;;;8.32;80.86;102165.31;5064828;28;20020;-81
2021/05/29 04:11:55;;;;;;;10.43;8.23;;;;;;;8.22;80.65;102166.00;5081390;28;20020;-81
2021/05/29 04:14:21;;;;;;;14.77;9.52;;;;;;;8.20;80.26;102162.50;5064337;28;20030;-82
2021/05/29 04:16:46;;;;;;;12.27;9.25;;;;;;;7.99;81.41;102174.31;5064058;28;20028;-82
2021/05/29 04:19:11;;;;;;;15.20;10.77;;;;;;;8.10;82.11;102174.50;5085513;28;20021;-81
2021/05/29 04:21:37;;;;;;;10.07;8.50;;;;;;;8.20;80.56;102176.38;5074270;28;20050;-82
2021/05/29 04:24:02;;;;;;;12.80;8.88;;;;;;;8.04;81.02;102174.38;5090780;28;20084;-82
2021/05/29 04:26:27;;;;;;;10.63;8.30;;;;;;;8.16;81.15;102176.31;5063856;28;20028;-81
2021/05/29 04:28:53;;;;;;;15.85;7.75;;;;;;;8.20;80.48;102180.72;5082660;28;20019;-82
2021/05/29 04:31:18;;;;;;;10.27;7.47;;;;;;;8.17;80.41;102175.47;5090372;28;20024;-81
2021/05/29 04:33:44;;;;;;;12.27;7.90;;;;;;;8.08;80.63;102176.19;5072572;28;20024;-81
2021/05/29 04:36:09;;;;;;;11.85;7.30;;;;;;;8.05;80.91;102176.13;5091849;28;20073;-81
2021/05/29 04:38:34;;;;;;;10.70;7.95;;;;;;;8.04;81.42;102177.84;5073540;28;20116;-81
2021/05/29 04:41:00;;;;;;;11.77;7.00;;;;;;;8.13;80.67;102174.53;5073791;28;20333;-81
2021/05/29 04:43:25;;;;;;;11.43;7.35;;;;;;;8.07;81.29;102179.63;5090133;28;20024;-81
2021/05/29 04:45:50;;;;;;;9.40;6.70;;;;;;;7.97;81.29;102175.97;5087808;28;20028;-81
2021/05/29 04:48:17;;;;;;;8.63;6.35;;;;;;;8.06;81.15;102183.09;5069655;28;20027;-81
2021/05/29 04:53:26;;;;;;;6.90;6.00;;;;;;;8.12;80.33;102180.59;5083392;28;20337;-81
2021/05/29 04:55:57;;;;;;;7.38;6.65;;;;;;;8.19;80.00;102185.03;5063908;28;20016;-81
2021/05/29 04:58:23;;;;;;;11.27;6.80;;;;;;;8.26;79.77;102184.31;5065577;28;20085;-81
2021/05/29 05:00:48;;;;;;;9.43;6.55;;;;;;;8.34;80.49;102181.81;5064956;28;20036;-81
2021/05/29 05:03:13;;;;;;;9.32;6.55;;;;;;;8.31;79.60;102180.91;5063886;28;20055;-81
2021/05/29 05:05:39;;;;;;;9.35;6.22;;;;;;;8.39;79.70;102188.00;5063076;28;20052;-80
2021/05/29 05:08:05;;;;;;;11.00;7.40;;;;;;;8.27;80.44;102178.25;5063304;28;20020;-80
2021/05/29 05:10:30;;;;;;;10.63;7.35;;;;;;;8.26;80.49;102176.50;5063693;28;20039;-81
2021/05/29 05:12:55;;;;;;;10.80;7.53;;;;;;;8.17;80.66;102181.56;5063673;28;20434;-81
2021/05/29 05:15:21;;;;;;;10.25;7.35;;;;;;;8.30;79.82;102182.63;5079679;28;20024;-81
2021/05/29 05:17:46;;;;;;;13.52;7.68;;;;;;;8.48;78.78;102186.44;5063604;28;20431;-81
2021/05/29 05:20:12;;;;;;;8.13;7.15;;;;;;;8.29;79.73;102186.09;5065670;28;20050;-81
2021/05/29 05:22:37;;;;;;;10.80;7.05;;;;;;;8.44;79.38;102188.97;5066463;28;20023;-81
2021/05/29 05:25:04;;;;;;;11.18;7.97;;;;;;;8.38;80.38;102195.78;5066285;28;20031;-81
2021/05/29 05:27:31;;;;;;;9.52;7.55;;;;;;;8.44;79.88;102190.69;5066710;28;20024;-81
2021/05/29 05:29:56;;;;;;;9.60;7.57;;;;;;;8.55;80.17;102189.16;5065442;28;20024;-82
2021/05/29 05:32:21;;;;;;;13.95;7.72;;;;;;;8.43;80.57;102194.13;5082957;28;20028;-82
2021/05/29 05:34:47;;;;;;;8.43;7.50;;;;;;;8.34;79.82;102197.44;5066586;28;20079;-83
2021/05/29 05:37:13;;;;;;;11.32;7.35;;;;;;;8.27;80.90;102203.41;5066173;28;20166;-82
2021/05/29 05:39:38;;;;;;;10.70;7.53;;;;;;;8.31;80.66;102204.34;5065893;28;20313;-82
2021/05/29 05:42:04;;;;;;;7.97;7.07;;;;;;;8.35;80.30;102198.34;5066866;28;20024;-81
2021/05/29 05:44:29;;;;;;;15.77;7.75;;;;;;;8.36;80.67;102207.91;5066958;28;20054;-81
2021/05/29 05:46:55;;;;;;;13.48;7.43;;;;;;;8.42;80.59;102210.59;5066657;28;20310;-80
2021/05/29 05:49:20;;;;;;;9.63;8.10;;;;;;;8.39;80.35;102208.81;5071110;28;20015;-81
2021/05/29 05:51:46;;;;;;;13.93;8.25;;;;;;;8.55;80.75;102217.81;5089028;28;20028;-82
2021/05/29 05:54:11;;;;;;;8.48;7.57;;;;;;;8.53;80.43;102221.25;5068357;28;20035;-82
2021/05/29 05:56:36;;;;;;;11.48;7.40;;;;;;;8.59;80.52;102210.94;5082550;28;20024;-82
2021/05/29 05:59:02;;;;;;;10.65;7.22;;;;;;;8.40;81.10;102217.53;5117726;23;20043;-80
2021/05/29 06:01:28;;;;;;;15.52;7.65;;;;;;;8.50;80.82;102218.59;5083555;28;20309;-81
2021/05/29 06:03:54;;;;;;;8.23;7.38;;;;;;;8.60;79.99;102213.56;5083456;28;20118;-81
2021/05/29 06:06:19;;;;;;;9.43;8.20;;;;;;;8.28;80.14;102216.44;5081949;28;20055;-80
2021/05/29 06:08:45;;;;;;;10.35;7.35;;;;;;;8.46;80.05;102217.66;5082307;28;20039;-80
2021/05/29 06:11:10;;;;;;;8.68;7.85;;;;;;;8.51;79.63;102218.63;5083037;28;20207;-80
2021/05/29 06:21:30;;;;;;;7.38;6.70;;;;;;;8.76;78.75;102232.91;5097576;28;20225;-80
2021/05/29 06:23:55;;;;;;;6.07;5.40;;;;;;;8.86;77.17;102239.16;5061900;28;20051;-80
2021/05/29 06:26:21;;;;;;;7.97;5.70;;;;;;;8.79;77.58;102234.69;5063084;28;20412;-80
2021/05/29 06:28:47;;;;;;;7.40;6.10;;;;;;;8.81;77.15;102243.41;5078524;28;20329;-80
2021/05/29 06:31:13;;;;;;;6.63;5.90;;;;;;;8.82;77.71;102245.19;5062564;28;20024;-79
2021/05/29 06:33:38;;;;;;;6.90;6.05;;;;;;;8.86;77.43;102241.75;5062910;28;20082;-79
2021/05/29 06:36:04;;;;;;;7.13;5.55;;;;;;;8.69;77.02;102238.00;5062436;28;20056;-80
2021/05/29 06:38:29;;;;;;;13.65;6.68;;;;;;;8.85;77.85;102244.31;5079166;28;20031;-78
2021/05/29 06:40:54;;;;;;;7.53;5.70;;;;;;;8.73;78.12;102245.03;5077260;28;20099;-80
2021/05/29 06:43:20;;;;;;;6.95;5.93;;;;;;;8.66;77.60;102244.03;5061980;28;20028;-80
2021/05/29 06:45:45;;;;;;;8.88;6.65;;;;;;;8.66;78.43;102237.94;5078938;28;20148;-79
2021/05/29 06:48:13;;;;;;;7.00;5.97;;;;;;;8.87;77.11;102240.88;5063208;28;20023;-79
2021/05/29 06:50:38;;;;;;;9.18;6.75;;;;;;;8.75;78.20;102246.81;5101307;28;20081;-80
2021/05/29 06:53:08;;;;;;;9.38;6.78;;;;;;;8.79;77.93;102246.00;5100930;28;20367;-79
2021/05/29 07:01:01;;;;;;;7.38;6.53;;;;;;;8.85;77.61;102246.94;5100927;28;20340;-80
2021/05/29 07:03:27;;;;;;;6.78;6.10;;;;;;;8.69;78.25;102248.44;5080063;28;20020;-79
2021/05/29 07:05:52;;;;;;;10.10;6.60;;;;;;;8.79;77.04;102251.22;5081271;28;20020;-79
2021/05/29 07:08:17;;;;;;;10.40;5.88;;;;;;;8.87;76.58;102253.06;5089654;28;20023;-80
2021/05/29 07:10:43;;;;;;;6.70;6.00;;;;;;;8.84;76.52;102248.66;5104720;28;20027;-80
2021/05/29 07:13:08;;;;;;;7.38;5.97;;;;;;;8.71;77.30;102260.63;5087758;28;20027;-79
2021/05/29 07:15:38;;;;;;;8.27;5.80;;;;;;;8.90;75.98;102259.19;5086688;28;20079;-80
2021/05/29 07:18:10;;;;;;;7.00;5.55;;;;;;;8.99;76.07;102260.19;5104533;28;20106;-79
2021/05/29 07:20:37;;;;;;;10.98;6.35;;;;;;;9.11;75.30;102260.38;5104338;28;20023;-83
2021/05/29 07:23:03;;;;;;;9.18;6.60;;;;;;;9.10;75.41;102256.00;5088717;28;20115;-81
2021/05/29 07:25:29;;;;;;;9.30;6.32;;;;;;;9.32;74.58;102265.00;5084341;28;20354;-81
2021/05/29 07:27:54;;;;;;;11.48;7.22;;;;;;;9.32;73.85;102271.97;5083972;28;20040;-84
2021/05/29 07:30:20;;;;;;;11.73;8.18;;;;;;;9.25;74.98;102277.09;5076907;28;20334;-84
2021/05/29 07:32:46;;;;;;;9.38;7.97;;;;;;;9.63;73.42;102271.50;5084700;28;20089;-81
2021/05/29 07:35:11;;;;;;;18.17;9.07;;;;;;;9.27;74.59;102279.72;5068303;28;20329;-82
2021/05/29 07:37:36;;;;;;;11.13;8.82;;;;;;;9.46;73.27;102276.53;5071352;28;20012;-82
2021/05/29 07:40:04;;;;;;;10.07;7.97;;;;;;;9.64;71.99;102280.25;5080869;28;20336;-83
2021/05/29 07:42:29;;;;;;;9.95;9.02;;;;;;;9.55;74.13;102277.50;5081993;28;20031;-83
2021/05/29 07:44:55;;;;;;;9.93;8.55;;;;;;;9.73;72.44;102274.25;5075210;28;20106;-83
2021/05/29 07:47:20;;;;;;;9.13;7.00;;;;;;;10.04;70.28;102275.50;5084633;28;20027;-83
2021/05/29 07:49:45;;;;;;;9.75;8.13;;;;;;;9.87;70.43;102280.53;5071458;28;20020;-83
2021/05/29 07:52:11;;;;;;;9.15;7.72;;;;;;;10.20;68.98;102281.75;5079627;28;20027;-83
2021/05/29 07:54:36;;;;;;;8.35;7.50;;;;;;;9.75;70.24;102289.06;5084545;28;20028;-83
2021/05/29 07:57:02;;;;;;;8.45;7.68;;;;;;;9.75;70.81;102283.00;5093680;28;20019;-83
2021/05/29 07:59:27;;;;;;;11.98;7.50;;;;;;;10.02;69.47;102278.94;5088201;28;20058;-83
2021/05/29 08:01:55;;;;;;;7.65;6.90;;;;;;;10.03;70.00;102283.31;5086789;28;20028;-84
2021/05/29 08:04:20;;;;;;;9.30;6.75;;;;;;;9.80;69.75;102286.50;5099064;28;20036;-84
2021/05/29 08:06:46;;;;;;;7.65;6.40;;;;;;;10.06;69.25;102283.34;5085691;28;20028;-84
2021/05/29 08:09:11;;;;;;;8.15;7.30;;;;;;;10.19;68.42;102287.84;5102166;28;20020;-84
2021/05/29 08:11:39;;;;;;;7.22;6.68;;;;;;;10.28;66.74;102292.28;5092738;28;20026;-82
2021/05/29 08:14:06;;;;;;;7.70;6.55;;;;;;;10.30;67.45;102294.03;5088358;28;20015;-82
2021/05/29 08:16:32;;;;;;;7.70;6.85;;;;;;;9.87;69.36;102300.50;5117519;28;20360;-83
2021/05/29 08:18:58;;;;;;;8.63;7.80;;;;;;;9.90;69.52;102296.22;5118092;28;20069;-83
2021/05/29 08:21:23;;;;;;;6.90;6.28;;;;;;;10.14;68.75;102295.63;5117106;28;20028;-83
2021/05/29 08:23:49;;;;;;;8.90;8.00;;;;;;;10.03;69.14;102291.13;5095521;28;20054;-83
2021/05/29 08:26:15;;;;;;;7.75;6.97;;;;;;;10.32;68.19;102299.28;5110849;28;20119;-83
2021/05/29 08:28:44;;;;;;;7.78;6.00;;;;;;;10.27;68.41;102291.41;5102129;28;20038;-83
2021/05/29 08:31:12;;;;;;;8.00;6.30;;;;;;;10.29;68.98;102297.53;5116950;28;20019;-83
2021/05/29 08:33:39;;;;;;;8.57;7.60;;;;;;;10.22;69.47;102300.91;5106462;28;20310;-81
2021/05/29 08:36:04;;;;;;;10.40;8.07;;;;;;;10.59;67.00;102305.69;5100112;28;20075;-79
2021/05/29 08:38:29;;;;;;;10.05;9.13;;;;;;;10.23;68.22;102302.69;5105970;28;20031;-81
2021/05/29 08:40:55;;;;;;;9.65;8.02;;;;;;;10.61;66.29;102303.97;5100332;28;20023;-81
2021/05/29 08:43:20;;;;;;;8.73;8.02;;;;;;;10.60;66.75;102303.06;5085139;28;20073;-81
2021/05/29 08:45:46;;;;;;;10.18;7.90;;;;;;;10.70;66.64;102303.16;5095589;28;20077;-81
2021/05/29 08:48:11;;;;;;;8.52;7.82;;;;;;;11.13;64.54;102303.53;5086689;28;20016;-81
2021/05/29 08:50:37;;;;;;;11.75;8.38;;;;;;;10.99;65.49;102301.69;5079405;28;20016;-81
2021/05/29 08:53:02;;;;;;;10.80;8.10;;;;;;;10.90;65.68;102301.59;5082881;28;20079;-84
2021/05/29 08:55:28;;;;;;;7.40;6.70;;;;;;;11.17;63.40;102305.28;5089066;28;20028;-83
2021/05/29 08:57:53;;;;;;;6.53;5.72;;;;;;;11.35;64.07;102298.44;5083572;28;20028;-80
2021/05/29 09:00:22;;;;;;;6.32;5.70;;;;;;;11.36;63.53;102308.91;5084098;28;20030;-82
2021/05/29 09:02:54;;;;;;;6.70;5.70;;;;;;;11.62;63.24;102302.94;5083383;28;20020;-84
2021/05/29 09:05:19;;;;;;;5.95;5.45;;;;;;;11.46;64.80;102313.31;5090297;28;20019;-83
2021/05/29 09:07:45;;;;;;;6.30;4.70;;;;;;;11.64;65.07;102307.34;5082172;28;20126;-82
2021/05/29 09:10:14;;;;;;;6.70;6.18;;;;;;;11.41;63.29;102319.38;5068397;28;20390;-81
2021/05/29 09:13:06;;;;;;;4.20;4.00;;;;;;;12.25;61.71;102323.31;5082287;28;20027;-80
2021/05/29 09:15:45;;;;;;;6.07;5.53;;;;;;;12.25;62.07;102320.69;5092617;28;20032;-80
2021/05/29 09:18:25;;;;;;;4.50;4.07;;;;;;;12.37;62.48;102325.09;5100788;28;20027;-80
2021/05/29 09:20:51;;;;;;;5.03;4.53;;;;;;;11.81;63.34;102324.84;5117372;28;20027;-80
2021/05/29 09:23:17;;;;;;;7.68;4.95;;;;;;;12.48;61.53;102331.22;5068809;28;20032;-80
2021/05/29 09:25:56;;;;;;;5.40;5.10;;;;;;;12.41;61.56;102326.84;5069909;28;20031;-79
2021/05/29 09:28:23;;;;;;;7.35;6.22;;;;;;;11.91;64.41;102320.53;5082847;28;20434;-80
2021/05/29 09:30:51;;;;;;;6.22;5.82;;;;;;;12.85;58.88;102326.00;5066085;28;20023;-82
2021/05/29 09:33:16;;;;;;;6.88;6.28;;;;;;;12.92;59.11;102314.63;5081486;28;20027;-82
2021/05/29 09:35:47;;;;;;;7.35;6.60;;;;;;;12.63;60.07;102328.59;5115015;28;20164;-82
2021/05/29 09:38:13;;;;;;;8.52;7.90;;;;;;;12.16;62.22;102332.00;5101193;28;20024;-82
2021/05/29 09:40:38;;;;;;;9.40;7.45;;;;;;;12.07;61.77;102330.22;5101099;28;20324;-82
2021/05/29 09:43:08;;;;;;;9.32;7.78;;;;;;;11.51;62.78;102336.91;5078058;28;20020;-82
2021/05/29 09:45:34;;;;;;;10.32;9.45;;;;;;;11.65;63.39;102335.22;5097933;28;20103;-80
2021/05/29 09:48:16;;;;;;;8.45;7.68;;;;;;;12.17;61.34;102339.00;5061915;28;20016;-82
2021/05/29 09:51:07;;;;;;;9.45;8.65;;;;;;;12.47;59.94;102334.69;5062647;28;20498;-81
2021/05/29 09:53:35;;;;;;;9.63;8.80;;;;;;;12.81;61.59;102340.00;5096683;28;20027;-82
2021/05/29 09:56:00;;;;;;;8.77;7.85;;;;;;;11.92;63.03;102338.88;5110053;28;20016;-81
2021/05/29 09:58:55;;;;;;;7.72;7.13;;;;;;;12.43;60.60;102331.19;5061328;28;20051;-82
2021/05/29 10:01:41;;;;;;;7.90;7.20;;;;;;;12.75;59.77;102332.09;5078515;28;20341;-81
2021/05/29 10:04:08;;;;;;;7.45;6.95;;;;;;;12.83;59.91;102331.25;5062453;28;20060;-82
2021/05/29 10:06:34;;;;;;;7.47;6.72;;;;;;;12.06;63.00;102345.94;5080210;28;20020;-82
2021/05/29 10:09:00;;;;;;;6.43;6.03;;;;;;;12.31;62.00;102332.06;5083873;28;20095;-82
2021/05/29 10:11:30;;;;;;;7.03;5.82;;;;;;;12.50;61.26;102332.06;5100069;28;20019;-81
2021/05/29 10:13:55;;;;;;;6.35;5.53;;;;;;;12.63;60.01;102335.63;5079346;28;20020;-82
2021/05/29 10:16:21;;;;;;;6.82;6.32;;;;;;;13.18;58.33;102335.63;5114276;28;20046;-81
2021/05/29 10:18:53;;;;;;;6.10;5.60;;;;;;;13.67;57.57;102332.06;5080498;28;20052;-82
2021/05/29 10:21:19;;;;;;;6.78;5.95;;;;;;;13.18;58.85;102330.38;5088365;28;20366;-83
2021/05/29 10:23:46;;;;;;;6.40;5.80;;;;;;;13.08;58.97;102330.38;5090904;28;20075;-82
2021/05/29 10:26:12;;;;;;;6.00;5.55;;;;;;;12.72;58.43;102342.59;5084774;28;20028;-82
2021/05/29 10:28:39;;;;;;;6.13;5.72;;;;;;;12.78;59.21;102337.38;5081046;28;20103;-81
2021/05/29 10:31:04;;;;;;;5.90;5.47;;;;;;;13.24;57.04;102333.84;5087733;28;20085;-82
2021/05/29 10:33:41;;;;;;;6.55;6.05;;;;;;;12.85;57.64;102333.88;5097843;28;20027;-78
2021/05/29 10:36:07;;;;;;;7.32;6.63;;;;;;;12.39;59.74;102339.06;5073654;28;20020;-79
2021/05/29 10:38:44;;;;;;;7.28;6.57;;;;;;;12.54;60.04;102339.06;5083812;28;20031;-78
2021/05/29 10:41:09;;;;;;;6.90;6.25;;;;;;;13.09;57.90;102348.75;5081050;28;20191;-77
2021/05/29 10:43:36;;;;;;;6.80;6.18;;;;;;;13.56;57.39;102344.34;5069010;28;20051;-77
2021/05/29 10:46:08;;;;;;;6.80;6.05;;;;;;;13.61;55.58;102342.56;5097204;28;20063;-77
2021/05/29 10:48:54;;;;;;;6.32;5.72;;;;;;;12.58;59.09;102345.22;5079569;28;20273;-76
2021/05/29 10:51:19;;;;;;;6.15;5.35;;;;;;;13.46;57.14;102353.13;5059901;28;20020;-77
2021/05/29 10:53:47;;;;;;;6.70;6.20;;;;;;;13.92;56.43;102344.22;5059639;28;20085;-77
2021/05/29 10:56:16;;;;;;;5.90;5.40;;;;;;;14.47;54.18;102350.97;5092028;28;20049;-77
2021/05/29 10:59:01;;;;;;;6.40;5.90;;;;;;;13.89;57.67;102341.63;5097086;28;20035;-76
2021/05/29 11:01:33;;;;;;;6.53;6.03;;;;;;;12.83;58.65;102349.63;5080780;28;20077;-77
2021/05/29 11:04:25;;;;;;;7.32;5.70;;;;;;;12.88;59.10;102349.59;5096644;28;20332;-77
2021/05/29 11:06:57;;;;;;;7.65;6.85;;;;;;;13.15;57.68;102347.88;5091942;28;20514;-77
2021/05/29 11:09:25;;;;;;;6.13;5.63;;;;;;;13.15;57.31;102347.88;5095544;28;20016;-78
2021/05/29 11:11:52;;;;;;;5.13;4.72;;;;;;;12.75;58.16;102350.47;5114739;28;20363;-77
2021/05/29 11:14:36;;;;;;;5.57;5.07;;;;;;;13.09;58.72;102353.09;5112151;28;20016;-77
2021/05/29 11:17:09;;;;;;;4.78;4.38;;;;;;;13.27;57.48;102353.09;5076294;28;20380;-78
2021/05/29 11:19:36;;;;;;;5.18;4.68;;;;;;;13.06;57.71;102346.13;5100202;28;20024;-77
2021/05/29 11:22:08;;;;;;;4.90;4.50;;;;;;;12.74;58.92;102356.59;5075952;28;20126;-77
2021/05/29 11:24:43;;;;;;;5.35;4.85;;;;;;;12.75;58.53;102353.09;5059035;28;20055;-75
2021/05/29 11:27:30;;;;;;;5.07;4.57;;;;;;;12.92;60.02;102351.34;5094264;28;20028;-75
2021/05/29 11:30:01;;;;;;;5.45;5.15;;;;;;;13.07;58.63;102350.47;5058351;28;20444;-75
2021/05/29 11:32:58;;;;;;;5.13;4.72;;;;;;;13.22;59.29;102348.75;5072578;28;20031;-75
2021/05/29 11:35:27;;;;;;;5.72;5.32;;;;;;;12.80;60.50;102351.34;5069574;28;20069;-74
2021/05/29 11:38:00;;;;;;;5.45;5.13;;;;;;;12.74;60.44;102356.59;5076387;28;20032;-75
2021/05/29 11:40:46;;;;;;;5.32;5.03;;;;;;;13.11;59.94;102346.13;5098673;28;20367;-75
2021/05/29 11:43:14;;;;;;;5.22;4.82;;;;;;;13.29;59.68;102350.47;5082625;28;20035;-75
2021/05/29 11:45:40;;;;;;;8.35;4.95;;;;;;;13.69;58.33;102340.81;5064597;28;20028;-71